ADDS METAR Data INFO
IDs: Format: Raw Decoded Include TAF

Data at: 1426 UTC 22 Feb 2018

KMCK 221353Z AUTO 15010KT 10SM OVC032 M06/M11 A3026 RMK AO2 SLP280 T10611106
KMCK 221253Z AUTO 12010KT 10SM OVC034 M06/M11 A3024 RMK AO2 PRESFR SLP274 T10561111
KMCK 221153Z AUTO 10009KT 10SM OVC038 M06/M12 A3022 RMK AO2 SLP267 T10561117 11039 21056 58027
KMCK 221053Z AUTO 11010KT 10SM OVC040 M06/M12 A3027 RMK AO2 SLP281 T10561117
KMCK 220953Z AUTO 10010KT 10SM OVC039 M06/M12 A3028 RMK AO2 SLP286 T10561117
KMCK 220853Z AUTO 12007KT 10SM OVC041 M06/M12 A3031 RMK AO2 SLP297 T10561117 55012
KMCK 220753Z AUTO 11012KT 10SM OVC040 M05/M13 A3031 RMK AO2 SLP297 T10501133
KMCK 220653Z AUTO 11011KT 10SM BKN045 OVC055 M04/M14 A3033 RMK AO2 SLP303 T10441139
KMCK 220553Z AUTO 10007KT 10SM OVC049 M04/M14 A3035 RMK AO2 SLP311 T10391139 11022 21039 410061172 58003
KMCK 220453Z AUTO 10008KT 10SM OVC048 M04/M12 A3036 RMK AO2 SLP317 T10391122
KMCK 220353Z AUTO 10008KT 10SM BKN050 OVC070 M04/M13 A3037 RMK AO2 SLP323 T10391128
KMCK 212353Z AUTO 13013KT 10SM BKN080 OVC090 M02/M15 A3037 RMK AO2 SLP330 T10221150 11006 21061 55007
KMCK 212253Z AUTO 13011KT 10SM BKN090 M02/M15 A3037 RMK AO2 SLP328 T10171150
KMCK 212153Z AUTO 11009KT 10SM OVC075 M01/M16 A3037 RMK AO2 SLP330 T10111156
KMCK 212053Z AUTO 15007KT 10SM OVC085 M02/M15 A3039 RMK AO2 SLP338 T10221150 56025
KMCK 211953Z AUTO 14006KT 10SM CLR M03/M15 A3042 RMK AO2 SLP346 T10281150
KMCK 211853Z AUTO 16009KT 10SM CLR M04/M15 A3045 RMK AO2 SLP358 T10391150
KMCK 211753Z AUTO 13007KT 10SM CLR M06/M15 A3047 RMK AO2 SLP368 T10561150 11056 21172 58009
KMCK 211653Z AUTO 16006KT 10SM CLR M08/M16 A3050 RMK AO2 SLP378 T10781156
KMCK 211553Z AUTO 19003KT 10SM CLR M11/M14 A3052 RMK AO2 SLP387 T11061144
KMCK 211453Z AUTO 25004KT 10SM CLR M14/M17 A3050 RMK AO2 SLP386 T11391172 53026
KMCK 211353Z AUTO 20004KT 10SM CLR M17/M18 A3048 RMK AO2 SLP379 T11671183
KMCK 211253Z AUTO 27004KT 10SM CLR M17/M19 A3044 RMK AO2 SLP362 T11671194
KMCK 210753Z AUTO 26003KT 10SM CLR M16/M18 A3044 RMK AO2 SLP359 T11561183
KMCK 210653Z AUTO 30007KT 10SM FEW120 M16/M18 A3042 RMK AO2 SLP354 T11561183
KMCK 210553Z AUTO 30008KT 10SM CLR M15/M18 A3041 RMK AO2 SLP350 T11501178 11089 21150 410721150 51022